Anthon, Iowa
Current Conditions -  °F | °C
As of 7:52 AM on Saturday 20 Dec 2014 (Local Time) from KSUX Reporting Station
Haze Haze  
Wind Chill: 26°   Ceiling: 700
Heat Index: 32°   Visibility: 4mi
Dew Point: 30°   Wind: 7mph
Humidity: 92%   Direction: 160°SSE
Pressure: 30.11"   Gusts: NA
Location:  42.39°N, 95.87°W
Report Text: KSUX 201352Z 16006KT 4SM BR OVC007 00/M01 A3011 RMK AO2 CIG 004V008 SLP206 T00001011
Loading
Personal Weather Stations






























Interactive Weather Map New forecast layout! Learn more

10-Day Weather Forecast

Advertisements
Track Severe Weather on mobile